Time;durP1;ratioP1;P1;durP2;ratioP2;P2;SDS_P1;SDS_P2;PMS_P1;PMS_P2;Temp;Humidity;BMP_temperature;BMP_pressure;BME280_temperature;BME280_humidity;BME280_pressure;Samples;Min_cycle;Max_cycle;Signal;HPM_P1;HPM_P2
2023/08/27 08:42:32;;;;;;;14.50;10.90;;;;;;;;;;5985286;27;20427;-56
2023/08/27 08:45:59;;;;;;;15.20;12.13;;;;;;;;;;6101747;29;20052;-56
2023/08/27 08:49:02;;;;;;;15.10;12.68;;;;;;;;;;6119024;29;20057;-58
2023/08/27 08:52:07;;;;;;;18.48;13.88;;;;;;;;;;6118926;29;20455;-61
2023/08/27 08:55:10;;;;;;;16.55;12.63;;;;;;;;;;6118889;29;20155;-55
2023/08/27 08:58:11;;;;;;;17.48;13.00;;;;;;;;;;6118871;29;20044;-56
2023/08/27 09:01:13;;;;;;;18.65;13.82;;;;;;;;;;6118902;29;20111;-60
2023/08/27 09:04:15;;;;;;;17.33;13.38;;;;;;;;;;6118643;29;20066;-60
2023/08/27 09:07:16;;;;;;;17.98;13.68;;;;;;;;;;6109480;29;20112;-58
2023/08/27 09:10:17;;;;;;;;;;;;;;;;;;6114725;29;20385;-57
2023/08/27 09:13:20;;;;;;;18.77;14.50;;;;;;;;;;6107367;29;20327;-57
2023/08/27 09:16:20;;;;;;;19.27;13.55;;;;;;;;;;6104403;29;20436;-56
2023/08/27 09:19:21;;;;;;;18.30;14.10;;;;;;;;;;6114670;29;20115;-57
2023/08/27 09:22:22;;;;;;;19.37;13.33;;;;;;;;;;6111957;29;20059;-58
2023/08/27 09:25:22;;;;;;;15.57;13.00;;;;;;;;;;6110908;29;20063;-55
2023/08/27 09:28:23;;;;;;;17.30;12.87;;;;;;;;;;6099333;29;20567;-56
2023/08/27 09:31:55;;;;;;;15.43;13.15;;;;;;;;;;6094919;29;20111;-56
2023/08/27 09:35:03;;;;;;;16.52;13.48;;;;;;;;;;6096790;29;20534;-57
2023/08/27 09:38:04;;;;;;;15.50;12.35;;;;;;;;;;6106171;29;20407;-59
2023/08/27 09:41:11;;;;;;;16.98;13.10;;;;;;;;;;6108384;29;20047;-59
2023/08/27 09:44:14;;;;;;;15.52;12.52;;;;;;;;;;6106668;29;20080;-59
2023/08/27 09:47:14;;;;;;;15.48;11.63;;;;;;;;;;6110985;29;20394;-59
2023/08/27 09:50:16;;;;;;;14.87;11.67;;;;;;;;;;6115899;29;20054;-54
2023/08/27 09:53:16;;;;;;;14.43;11.52;;;;;;;;;;6111118;29;20052;-59
2023/08/27 09:56:17;;;;;;;14.00;11.37;;;;;;;;;;6111427;29;20414;-57
2023/08/27 09:59:19;;;;;;;14.00;11.17;;;;;;;;;;6115829;29;20127;-59
2023/08/27 10:02:19;;;;;;;16.10;12.52;;;;;;;;;;6118197;29;20499;-55
2023/08/27 10:05:28;;;;;;;15.47;11.83;;;;;;;;;;6114025;29;20048;-57
2023/08/27 10:08:29;;;;;;;14.00;11.25;;;;;;;;;;6119952;29;20044;-57
2023/08/27 10:11:32;;;;;;;15.90;12.43;;;;;;;;;;6118900;29;20095;-56
2023/08/27 10:14:33;;;;;;;16.00;11.73;;;;;;;;;;6122375;29;20321;-56
2023/08/27 10:17:34;;;;;;;14.02;11.70;;;;;;;;;;6122640;29;20048;-58
2023/08/27 10:20:36;;;;;;;15.93;12.23;;;;;;;;;;6121947;29;20422;-56
2023/08/27 10:23:41;;;;;;;14.40;11.43;;;;;;;;;;6122531;29;20052;-57
2023/08/27 10:26:46;;;;;;;14.80;11.35;;;;;;;;;;6122029;29;20075;-59
2023/08/27 10:29:48;;;;;;;14.32;10.90;;;;;;;;;;6109696;29;20044;-55
2023/08/27 10:32:48;;;;;;;18.13;11.73;;;;;;;;;;6122832;29;20059;-57
2023/08/27 10:35:51;;;;;;;16.27;13.10;;;;;;;;;;6121867;29;20586;-57
2023/08/27 10:38:53;;;;;;;16.45;12.27;;;;;;;;;;6094788;29;20127;-58
2023/08/27 10:41:54;;;;;;;16.58;12.30;;;;;;;;;;6098186;29;20047;-58
2023/08/27 10:45:13;;;;;;;16.80;13.00;;;;;;;;;;6090247;29;20437;-58
2023/08/27 10:48:17;;;;;;;16.15;13.13;;;;;;;;;;6084747;29;20044;-60
2023/08/27 10:51:21;;;;;;;20.48;13.35;;;;;;;;;;6110166;29;20053;-57
2023/08/27 10:54:25;;;;;;;19.45;14.15;;;;;;;;;;6090603;29;20143;-59
2023/08/27 10:57:26;;;;;;;17.38;13.48;;;;;;;;;;6093648;29;20412;-58
2023/08/27 11:00:27;;;;;;;17.10;13.17;;;;;;;;;;6094271;29;20052;-57
2023/08/27 11:03:28;;;;;;;16.50;13.03;;;;;;;;;;6090658;29;20056;-61
2023/08/27 11:06:45;;;;;;;15.80;12.93;;;;;;;;;;6105350;29;20518;-59
2023/08/27 11:09:56;;;;;;;14.90;12.75;;;;;;;;;;6097505;29;20055;-61
2023/08/27 11:12:58;;;;;;;16.00;12.55;;;;;;;;;;6090652;29;20044;-59
2023/08/27 11:15:58;;;;;;;17.30;12.32;;;;;;;;;;6098039;29;20196;-58
2023/08/27 11:18:59;;;;;;;15.50;12.63;;;;;;;;;;6088859;29;20146;-58
2023/08/27 11:22:21;;;;;;;18.00;12.87;;;;;;;;;;6115009;29;20286;-55
2023/08/27 11:25:25;;;;;;;16.67;12.90;;;;;;;;;;6109015;29;20844;-58
2023/08/27 11:28:25;;;;;;;17.08;13.23;;;;;;;;;;6120517;29;20162;-58
2023/08/27 11:31:27;;;;;;;15.85;12.90;;;;;;;;;;6120868;29;20797;-58
2023/08/27 11:34:34;;;;;;;18.10;13.18;;;;;;;;;;6120451;29;20048;-57
2023/08/27 11:37:37;;;;;;;16.15;12.85;;;;;;;;;;6097087;29;20073;-58
2023/08/27 11:40:38;;;;;;;16.75;13.60;;;;;;;;;;6119883;29;20418;-58
2023/08/27 11:43:39;;;;;;;17.63;12.47;;;;;;;;;;6116891;29;20082;-55
2023/08/27 11:46:41;;;;;;;18.37;14.03;;;;;;;;;;6108349;29;20392;-55
2023/08/27 11:49:41;;;;;;;16.83;13.23;;;;;;;;;;6114662;29;20044;-59
2023/08/27 11:52:42;;;;;;;19.03;13.20;;;;;;;;;;6119071;29;20578;-56
2023/08/27 11:55:43;;;;;;;18.20;12.80;;;;;;;;;;6099945;29;20508;-55
2023/08/27 11:58:51;;;;;;;17.25;12.95;;;;;;;;;;6100453;29;20071;-57
2023/08/27 12:01:53;;;;;;;17.15;13.05;;;;;;;;;;6109497;29;20054;-56
2023/08/27 12:04:53;;;;;;;17.38;13.18;;;;;;;;;;6096003;29;20518;-54
2023/08/27 12:07:54;;;;;;;17.35;13.30;;;;;;;;;;6091562;29;20059;-57
2023/08/27 12:10:55;;;;;;;18.83;13.63;;;;;;;;;;6098047;29;20043;-56
2023/08/27 12:14:00;;;;;;;18.43;13.87;;;;;;;;;;6098634;29;20405;-58
2023/08/27 12:17:08;;;;;;;19.00;14.55;;;;;;;;;;6100411;29;20071;-57
2023/08/27 12:20:10;;;;;;;17.30;13.63;;;;;;;;;;6099364;29;20122;-55
2023/08/27 12:23:14;;;;;;;16.23;13.57;;;;;;;;;;6098084;29;20524;-55
2023/08/27 12:26:15;;;;;;;16.98;13.68;;;;;;;;;;6100580;29;20309;-57
2023/08/27 12:29:15;;;;;;;16.77;14.00;;;;;;;;;;6107188;29;20067;-52
2023/08/27 12:32:17;;;;;;;17.80;13.60;;;;;;;;;;6095305;29;20094;-55
2023/08/27 12:35:18;;;;;;;17.45;13.82;;;;;;;;;;6092304;29;20103;-53
2023/08/27 12:38:19;;;;;;;16.70;13.40;;;;;;;;;;6096912;29;20388;-57
2023/08/27 12:41:20;;;;;;;17.50;13.83;;;;;;;;;;6097888;29;20048;-56
2023/08/27 12:44:21;;;;;;;19.85;14.55;;;;;;;;;;6097520;29;20052;-54
2023/08/27 12:47:23;;;;;;;19.73;16.43;;;;;;;;;;6095910;29;20074;-55
2023/08/27 12:50:23;;;;;;;22.55;16.08;;;;;;;;;;6099195;29;20474;-58
2023/08/27 12:53:24;;;;;;;20.57;15.80;;;;;;;;;;6109609;29;20082;-59
2023/08/27 12:56:25;;;;;;;21.93;15.80;;;;;;;;;;6120593;29;20495;-56
2023/08/27 12:59:25;;;;;;;21.97;16.30;;;;;;;;;;6120586;29;20056;-53
2023/08/27 13:02:26;;;;;;;21.13;18.10;;;;;;;;;;6113945;29;20064;-53
2023/08/27 13:05:26;;;;;;;22.87;18.17;;;;;;;;;;6120263;29;20290;-58
2023/08/27 13:08:27;;;;;;;23.90;17.63;;;;;;;;;;6120542;29;20091;-52
2023/08/27 13:11:28;;;;;;;20.93;17.23;;;;;;;;;;6111851;29;20423;-51
2023/08/27 13:14:29;;;;;;;22.17;17.55;;;;;;;;;;6117765;29;20059;-56
2023/08/27 13:17:30;;;;;;;21.13;17.77;;;;;;;;;;6112711;29;20138;-57
2023/08/27 13:20:31;;;;;;;23.15;16.98;;;;;;;;;;6119423;29;20531;-56
2023/08/27 13:23:31;;;;;;;21.23;17.63;;;;;;;;;;6121839;29;20065;-56
2023/08/27 13:26:33;;;;;;;21.40;17.33;;;;;;;;;;6122356;29;20604;-56
2023/08/27 13:29:34;;;;;;;20.75;16.80;;;;;;;;;;6123969;29;20077;-59
2023/08/27 13:32:34;;;;;;;;;;;;;;;;;;6116118;29;20051;-56
2023/08/27 13:35:35;;;;;;;20.63;16.67;;;;;;;;;;6116930;29;20725;-58
2023/08/27 13:38:36;;;;;;;21.03;17.17;;;;;;;;;;6126119;29;20055;-58
2023/08/27 13:41:36;;;;;;;23.03;17.13;;;;;;;;;;6112419;28;20063;-57
2023/08/27 13:44:37;;;;;;;21.30;16.92;;;;;;;;;;6122896;29;20130;-56
2023/08/27 13:47:37;;;;;;;21.77;16.73;;;;;;;;;;6121222;29;20055;-58
2023/08/27 13:50:38;;;;;;;23.47;16.57;;;;;;;;;;6125290;29;20111;-54
2023/08/27 13:53:38;;;;;;;23.73;16.80;;;;;;;;;;6118256;29;20098;-54
2023/08/27 13:56:39;;;;;;;21.87;17.80;;;;;;;;;;6116536;29;20043;-58
2023/08/27 13:59:41;;;;;;;21.03;16.43;;;;;;;;;;6124540;29;20704;-57
2023/08/27 14:02:42;;;;;;;20.77;16.27;;;;;;;;;;6118990;29;20086;-56
2023/08/27 14:05:43;;;;;;;;;;;;;;;;;;6120945;29;20070;-54
2023/08/27 14:08:44;;;;;;;21.17;16.27;;;;;;;;;;6117557;29;19926;-57
2023/08/27 14:11:44;;;;;;;23.27;17.30;;;;;;;;;;6113991;29;20529;-56
2023/08/27 14:14:45;;;;;;;21.10;16.73;;;;;;;;;;6123779;29;20341;-57
2023/08/27 14:17:46;;;;;;;22.43;17.43;;;;;;;;;;6122581;29;20063;-58
2023/08/27 14:20:46;;;;;;;22.03;17.43;;;;;;;;;;6116909;29;20044;-60
2023/08/27 14:23:47;;;;;;;25.20;17.80;;;;;;;;;;6120574;29;20197;-58
2023/08/27 14:26:48;;;;;;;22.87;17.60;;;;;;;;;;6121441;29;20138;-54
2023/08/27 14:29:48;;;;;;;22.33;17.60;;;;;;;;;;6117464;29;20048;-57
2023/08/27 14:32:49;;;;;;;24.57;17.97;;;;;;;;;;6119920;29;20069;-57
2023/08/27 14:35:49;;;;;;;21.73;17.03;;;;;;;;;;6114997;29;20052;-59
2023/08/27 14:38:50;;;;;;;24.73;18.63;;;;;;;;;;6117712;29;20090;-60
2023/08/27 14:41:51;;;;;;;19.97;16.53;;;;;;;;;;6114134;29;20050;-57
2023/08/27 14:44:52;;;;;;;;;;;;;;;;;;6123823;29;20502;-52
2023/08/27 14:47:53;;;;;;;21.77;16.47;;;;;;;;;;6117916;29;19938;-53
2023/08/27 14:50:54;;;;;;;20.45;15.93;;;;;;;;;;6118831;29;20047;-58
2023/08/27 14:53:54;;;;;;;23.57;16.50;;;;;;;;;;6123667;28;20055;-55
2023/08/27 14:56:55;;;;;;;21.27;17.48;;;;;;;;;;6123032;29;20094;-60
2023/08/27 14:59:55;;;;;;;22.63;17.00;;;;;;;;;;6120659;29;20054;-62
2023/08/27 15:02:56;;;;;;;19.60;16.23;;;;;;;;;;6114366;29;20103;-60
2023/08/27 15:05:57;;;;;;;24.13;17.37;;;;;;;;;;6123846;29;20047;-58
2023/08/27 15:08:57;;;;;;;22.40;16.90;;;;;;;;;;6117515;29;20036;-60
2023/08/27 15:11:58;;;;;;;20.37;16.73;;;;;;;;;;6116808;29;20286;-58
2023/08/27 15:14:59;;;;;;;21.30;17.10;;;;;;;;;;6118771;29;20048;-58
2023/08/27 15:17:59;;;;;;;23.07;16.07;;;;;;;;;;6113125;29;20864;-57
2023/08/27 15:21:00;;;;;;;22.60;17.03;;;;;;;;;;6120987;29;20130;-58
2023/08/27 15:24:02;;;;;;;19.53;16.03;;;;;;;;;;6117981;29;20297;-57
2023/08/27 15:27:03;;;;;;;22.60;16.70;;;;;;;;;;6115543;29;20070;-59
2023/08/27 15:30:04;;;;;;;20.52;16.98;;;;;;;;;;6118799;29;20130;-57
2023/08/27 15:33:06;;;;;;;20.55;16.45;;;;;;;;;;6115669;29;20050;-59
2023/08/27 15:36:06;;;;;;;22.38;17.10;;;;;;;;;;6124203;29;20375;-57
2023/08/27 15:39:07;;;;;;;22.75;17.02;;;;;;;;;;6117605;29;20040;-59
2023/08/27 15:42:07;;;;;;;20.67;16.30;;;;;;;;;;6115441;29;20087;-62
2023/08/27 15:45:08;;;;;;;22.48;17.65;;;;;;;;;;6115905;29;20547;-60
2023/08/27 15:48:09;;;;;;;21.47;17.83;;;;;;;;;;6116714;29;20047;-59
2023/08/27 15:51:09;;;;;;;21.93;17.10;;;;;;;;;;6114334;29;20867;-59
2023/08/27 15:54:10;;;;;;;20.63;17.43;;;;;;;;;;6120321;29;20297;-60
2023/08/27 15:57:11;;;;;;;25.30;17.40;;;;;;;;;;6114153;29;20059;-61
2023/08/27 16:00:12;;;;;;;23.35;18.70;;;;;;;;;;6120199;29;20040;-59
2023/08/27 16:03:13;;;;;;;24.38;18.48;;;;;;;;;;6118738;29;20181;-60
2023/08/27 16:06:14;;;;;;;25.67;19.02;;;;;;;;;;6113958;28;20090;-60
2023/08/27 16:09:15;;;;;;;24.13;18.45;;;;;;;;;;6115071;28;20043;-63
2023/08/27 16:12:16;;;;;;;22.97;17.90;;;;;;;;;;6118407;29;20061;-61
2023/08/27 16:15:17;;;;;;;21.95;17.85;;;;;;;;;;6112433;29;20059;-62
2023/08/27 16:18:17;;;;;;;24.80;18.57;;;;;;;;;;6105979;29;20048;-62
2023/08/27 16:21:18;;;;;;;28.73;21.45;;;;;;;;;;6105241;29;20138;-58
2023/08/27 16:24:18;;;;;;;31.50;22.73;;;;;;;;;;6087995;29;20080;-61
2023/08/27 16:27:19;;;;;;;29.98;22.08;;;;;;;;;;6106527;29;20052;-61
2023/08/27 16:30:20;;;;;;;30.73;22.87;;;;;;;;;;6086249;29;20086;-61
2023/08/27 16:33:22;;;;;;;31.57;22.20;;;;;;;;;;6104040;29;20933;-59
2023/08/27 16:36:23;;;;;;;33.42;24.83;;;;;;;;;;6105248;29;20079;-60
2023/08/27 16:39:25;;;;;;;36.50;27.57;;;;;;;;;;6092804;29;20052;-60
2023/08/27 16:42:25;;;;;;;35.17;27.58;;;;;;;;;;6109940;29;20071;-61
2023/08/27 16:45:26;;;;;;;35.30;26.90;;;;;;;;;;6107621;29;20115;-61
2023/08/27 16:48:27;;;;;;;36.80;28.00;;;;;;;;;;6103666;29;21585;-60
2023/08/27 16:51:27;;;;;;;39.15;29.60;;;;;;;;;;6106066;29;20066;-59
2023/08/27 16:54:28;;;;;;;37.30;28.73;;;;;;;;;;6108815;29;20513;-60
2023/08/27 16:57:29;;;;;;;38.07;28.97;;;;;;;;;;6107750;29;20083;-61
2023/08/27 17:00:29;;;;;;;33.73;25.20;;;;;;;;;;6105592;29;20777;-60
2023/08/27 17:03:30;;;;;;;29.88;21.90;;;;;;;;;;6104818;29;20056;-61
2023/08/27 17:06:31;;;;;;;28.43;20.53;;;;;;;;;;6107188;29;20059;-59
2023/08/27 17:09:31;;;;;;;26.45;20.00;;;;;;;;;;6105268;29;20437;-62
2023/08/27 17:12:32;;;;;;;29.60;21.00;;;;;;;;;;6104126;29;20048;-59
2023/08/27 17:15:33;;;;;;;29.67;21.43;;;;;;;;;;6110278;29;20056;-61
2023/08/27 17:18:34;;;;;;;29.00;22.33;;;;;;;;;;6112263;29;20507;-60
2023/08/27 17:21:35;;;;;;;;;;;;;;;;;;6113944;29;20054;-61
2023/08/27 17:24:36;;;;;;;28.33;22.20;;;;;;;;;;6111772;29;20401;-62
2023/08/27 17:27:37;;;;;;;33.13;22.90;;;;;;;;;;6112775;29;20043;-63
2023/08/27 17:30:38;;;;;;;30.42;23.17;;;;;;;;;;6119351;29;20665;-60
2023/08/27 17:33:39;;;;;;;30.27;21.93;;;;;;;;;;6097052;29;20055;-62
2023/08/27 17:36:39;;;;;;;28.40;21.70;;;;;;;;;;6117533;28;20059;-61
2023/08/27 17:39:40;;;;;;;32.57;24.67;;;;;;;;;;6114626;29;20079;-62
2023/08/27 17:42:40;;;;;;;27.50;21.67;;;;;;;;;;6113262;29;20067;-61
2023/08/27 17:45:41;;;;;;;26.03;20.40;;;;;;;;;;6113524;29;20052;-61
2023/08/27 17:48:41;;;;;;;27.57;21.57;;;;;;;;;;6111345;29;20546;-61
2023/08/27 17:51:42;;;;;;;30.37;22.87;;;;;;;;;;6112713;29;21169;-61
2023/08/27 17:54:43;;;;;;;31.07;23.20;;;;;;;;;;6112451;29;20059;-60
2023/08/27 17:57:43;;;;;;;32.60;23.97;;;;;;;;;;6114052;29;20056;-61
2023/08/27 18:00:44;;;;;;;31.30;23.77;;;;;;;;;;6119388;29;20051;-60
2023/08/27 18:03:45;;;;;;;30.83;23.77;;;;;;;;;;6112994;29;20058;-61
2023/08/27 18:06:45;;;;;;;31.67;22.90;;;;;;;;;;6113746;29;20036;-62
2023/08/27 18:09:46;;;;;;;30.90;23.03;;;;;;;;;;6114089;29;20051;-62
2023/08/27 18:12:47;;;;;;;31.47;23.60;;;;;;;;;;6109882;29;20051;-62
2023/08/27 18:15:47;;;;;;;34.27;25.20;;;;;;;;;;6114333;29;20904;-61
2023/08/27 18:18:48;;;;;;;32.23;23.20;;;;;;;;;;6114243;29;21434;-62
2023/08/27 18:21:49;;;;;;;29.85;22.02;;;;;;;;;;6111932;29;20169;-63
2023/08/27 18:24:49;;;;;;;32.23;23.17;;;;;;;;;;6111713;29;20062;-60
2023/08/27 18:27:50;;;;;;;32.93;23.17;;;;;;;;;;6115253;29;20505;-61
2023/08/27 18:30:54;;;;;;;31.27;22.03;;;;;;;;;;6109886;29;20047;-60
2023/08/27 18:33:55;;;;;;;29.02;21.65;;;;;;;;;;6106742;29;20403;-58
2023/08/27 18:36:55;;;;;;;31.10;21.63;;;;;;;;;;6107815;29;20043;-60
2023/08/27 18:39:56;;;;;;;31.00;20.57;;;;;;;;;;6112158;29;20052;-59
2023/08/27 18:42:56;;;;;;;27.70;21.23;;;;;;;;;;6108716;29;20055;-60
2023/08/27 18:45:58;;;;;;;32.40;23.20;;;;;;;;;;6098700;29;20060;-60
2023/08/27 18:48:59;;;;;;;36.78;23.25;;;;;;;;;;6099128;29;20142;-60
2023/08/27 18:51:59;;;;;;;30.52;22.50;;;;;;;;;;6098439;29;20411;-59
2023/08/27 18:55:01;;;;;;;33.73;22.80;;;;;;;;;;6099288;29;20044;-59
2023/08/27 18:58:02;;;;;;;28.40;21.13;;;;;;;;;;6099415;29;20529;-60
2023/08/27 19:01:03;;;;;;;30.27;22.20;;;;;;;;;;6101869;29;20651;-60
2023/08/27 19:04:03;;;;;;;29.27;22.00;;;;;;;;;;6097537;29;20052;-61
2023/08/27 19:07:04;;;;;;;30.90;23.20;;;;;;;;;;6080119;29;20044;-62
2023/08/27 19:10:05;;;;;;;34.78;23.63;;;;;;;;;;6091069;29;20516;-60
2023/08/27 19:13:06;;;;;;;29.13;21.30;;;;;;;;;;6092668;29;20043;-59
2023/08/27 19:16:07;;;;;;;30.33;20.13;;;;;;;;;;6098125;29;20052;-56
2023/08/27 19:19:07;;;;;;;29.27;21.33;;;;;;;;;;6092775;29;20476;-60
2023/08/27 19:22:08;;;;;;;55.63;31.90;;;;;;;;;;6092453;29;20195;-59
2023/08/27 19:25:08;;;;;;;180.37;77.67;;;;;;;;;;6100180;29;20469;-61
2023/08/27 19:28:09;;;;;;;98.43;46.57;;;;;;;;;;6098886;29;20151;-59
2023/08/27 19:31:10;;;;;;;99.10;53.60;;;;;;;;;;6092465;29;20051;-61
2023/08/27 19:34:10;;;;;;;87.20;46.13;;;;;;;;;;6101269;29;20055;-61
2023/08/27 19:37:11;;;;;;;69.77;41.77;;;;;;;;;;6093713;29;20483;-61
2023/08/27 19:40:12;;;;;;;71.37;40.37;;;;;;;;;;6097152;29;20650;-61
2023/08/27 19:43:12;;;;;;;100.67;54.93;;;;;;;;;;6109604;29;20055;-62
2023/08/27 19:46:13;;;;;;;190.50;91.03;;;;;;;;;;6124090;29;20043;-61
2023/08/27 19:49:13;;;;;;;139.93;68.33;;;;;;;;;;6113478;29;20043;-61
2023/08/27 19:52:14;;;;;;;82.20;43.03;;;;;;;;;;6120752;29;20051;-61
2023/08/27 19:55:15;;;;;;;52.37;32.33;;;;;;;;;;6123566;29;20494;-54
2023/08/27 19:58:15;;;;;;;57.07;34.67;;;;;;;;;;6116399;29;20628;-59
2023/08/27 20:01:16;;;;;;;65.20;37.03;;;;;;;;;;6123481;29;20058;-60
2023/08/27 20:04:17;;;;;;;63.83;34.77;;;;;;;;;;6123866;29;20055;-61
2023/08/27 20:07:18;;;;;;;54.55;34.08;;;;;;;;;;6120827;29;20107;-61
2023/08/27 20:10:20;;;;;;;63.08;35.58;;;;;;;;;;6117519;29;20569;-60
2023/08/27 20:13:21;;;;;;;57.43;33.77;;;;;;;;;;6115901;29;20066;-60
2023/08/27 20:16:21;;;;;;;50.13;31.90;;;;;;;;;;6120697;29;20281;-61
2023/08/27 20:19:22;;;;;;;58.27;31.63;;;;;;;;;;6117160;29;20060;-60
2023/08/27 20:22:23;;;;;;;69.77;38.33;;;;;;;;;;6122002;29;20149;-60
2023/08/27 20:25:25;;;;;;;62.77;35.63;;;;;;;;;;6120226;29;20103;-59
2023/08/27 20:28:26;;;;;;;69.20;37.70;;;;;;;;;;6115868;29;20081;-63
2023/08/27 20:31:26;;;;;;;52.20;32.03;;;;;;;;;;6113598;29;20056;-64
2023/08/27 20:34:29;;;;;;;89.30;44.57;;;;;;;;;;6116204;29;21365;-64
2023/08/27 20:37:30;;;;;;;84.63;41.05;;;;;;;;;;6117029;29;20043;-62
2023/08/27 20:40:30;;;;;;;75.07;39.93;;;;;;;;;;6120289;29;20086;-61
2023/08/27 20:43:34;;;;;;;265.43;109.17;;;;;;;;;;6117548;29;20087;-61
2023/08/27 20:46:35;;;;;;;151.70;68.13;;;;;;;;;;6119197;29;20064;-58
2023/08/27 20:49:35;;;;;;;124.07;52.60;;;;;;;;;;6110970;29;20044;-58
2023/08/27 20:52:36;;;;;;;151.27;58.67;;;;;;;;;;6110984;29;20078;-58
2023/08/27 20:55:36;;;;;;;151.60;61.40;;;;;;;;;;6105263;29;20047;-59
2023/08/27 20:58:37;;;;;;;179.73;71.30;;;;;;;;;;6106087;29;20151;-58
2023/08/27 21:01:37;;;;;;;160.87;67.43;;;;;;;;;;6107906;29;20191;-57
2023/08/27 21:04:38;;;;;;;124.37;56.73;;;;;;;;;;6107572;29;20056;-58
2023/08/27 21:07:39;;;;;;;113.87;49.23;;;;;;;;;;6104407;29;20082;-59
2023/08/27 21:10:39;;;;;;;141.20;57.10;;;;;;;;;;6109796;29;20050;-62
2023/08/27 21:13:41;;;;;;;131.07;56.17;;;;;;;;;;6109920;29;20490;-61
2023/08/27 21:16:41;;;;;;;118.00;52.25;;;;;;;;;;6107968;29;20299;-60
2023/08/27 21:19:42;;;;;;;106.00;47.93;;;;;;;;;;6105373;29;20062;-61
2023/08/27 21:22:43;;;;;;;98.00;47.40;;;;;;;;;;6104605;29;20079;-61
2023/08/27 21:25:44;;;;;;;88.43;45.17;;;;;;;;;;6107323;29;20051;-61
2023/08/27 21:28:45;;;;;;;124.55;54.45;;;;;;;;;;6102916;29;20063;-61
2023/08/27 21:31:46;;;;;;;115.50;52.17;;;;;;;;;;6106490;29;20052;-61
2023/08/27 21:34:46;;;;;;;89.40;45.17;;;;;;;;;;6109398;29;20960;-61
2023/08/27 21:37:47;;;;;;;105.20;47.83;;;;;;;;;;6106409;29;20051;-58
2023/08/27 21:40:51;;;;;;;95.23;45.53;;;;;;;;;;6104869;29;20058;-60
2023/08/27 21:43:51;;;;;;;99.53;46.08;;;;;;;;;;6104501;29;20602;-60
2023/08/27 21:46:52;;;;;;;78.63;41.17;;;;;;;;;;6104038;29;20050;-60
2023/08/27 21:49:52;;;;;;;44.13;27.57;;;;;;;;;;6106903;29;20052;-61
2023/08/27 21:52:53;;;;;;;53.73;30.47;;;;;;;;;;6106716;29;20071;-58
2023/08/27 21:55:54;;;;;;;48.73;28.53;;;;;;;;;;6108531;29;20043;-60
2023/08/27 21:58:55;;;;;;;47.47;27.87;;;;;;;;;;6107795;29;20494;-61
2023/08/27 22:01:55;;;;;;;48.17;29.47;;;;;;;;;;6106672;29;20054;-60
2023/08/27 22:04:56;;;;;;;46.80;29.07;;;;;;;;;;6110627;28;20150;-59
2023/08/27 22:07:56;;;;;;;47.73;29.17;;;;;;;;;;6113158;29;20399;-60
2023/08/27 22:10:57;;;;;;;56.67;31.67;;;;;;;;;;6109490;29;20051;-60
2023/08/27 22:13:58;;;;;;;47.03;27.97;;;;;;;;;;6112405;29;20054;-59
2023/08/27 22:16:59;;;;;;;70.77;32.60;;;;;;;;;;6109689;29;20055;-59
2023/08/27 22:19:59;;;;;;;76.50;30.63;;;;;;;;;;6108398;29;20048;-62
2023/08/27 22:23:00;;;;;;;50.10;29.67;;;;;;;;;;6112570;29;20573;-58
2023/08/27 22:26:00;;;;;;;48.40;29.47;;;;;;;;;;6110143;29;20044;-59
2023/08/27 22:29:01;;;;;;;40.20;27.00;;;;;;;;;;6107683;29;20603;-62
2023/08/27 22:32:01;;;;;;;41.37;26.60;;;;;;;;;;6110878;29;20056;-61
2023/08/27 22:35:17;;;;;;;42.07;27.23;;;;;;;;;;6111850;29;20052;-61
2023/08/27 22:38:17;;;;;;;44.67;29.33;;;;;;;;;;6107512;29;20066;-61
2023/08/27 22:41:18;;;;;;;49.33;29.90;;;;;;;;;;6107900;29;20050;-62
2023/08/27 22:44:18;;;;;;;53.37;30.87;;;;;;;;;;6107610;29;21336;-59
2023/08/27 22:47:19;;;;;;;43.70;27.73;;;;;;;;;;6111540;29;20142;-59
2023/08/27 22:50:19;;;;;;;47.23;29.17;;;;;;;;;;6109184;29;20060;-59
2023/08/27 22:53:20;;;;;;;49.17;29.97;;;;;;;;;;6109734;29;20066;-61
2023/08/27 22:56:21;;;;;;;44.50;27.37;;;;;;;;;;6110004;29;20423;-61
2023/08/27 22:59:21;;;;;;;40.20;25.13;;;;;;;;;;6106128;29;20491;-62
2023/08/27 23:02:23;;;;;;;40.57;24.43;;;;;;;;;;6107796;29;20055;-61
2023/08/27 23:05:24;;;;;;;41.80;24.15;;;;;;;;;;6109121;29;21100;-61
2023/08/27 23:08:25;;;;;;;44.27;26.20;;;;;;;;;;6106186;29;20059;-60
2023/08/27 23:11:25;;;;;;;44.92;25.70;;;;;;;;;;6111169;29;20058;-60
2023/08/27 23:14:26;;;;;;;47.87;27.63;;;;;;;;;;6107717;29;20693;-60
2023/08/27 23:17:27;;;;;;;48.37;27.90;;;;;;;;;;6107321;29;20114;-60
2023/08/27 23:20:27;;;;;;;48.57;28.00;;;;;;;;;;6105665;29;20067;-61
2023/08/27 23:23:28;;;;;;;49.37;27.43;;;;;;;;;;6105683;29;20051;-60
2023/08/27 23:26:28;;;;;;;48.13;26.10;;;;;;;;;;6101585;29;20048;-61
2023/08/27 23:29:30;;;;;;;21.37;13.33;;;;;;;;;;6103504;29;20471;-62
2023/08/27 23:32:31;;;;;;;15.50;9.18;;;;;;;;;;6102019;29;20764;-60
2023/08/27 23:35:31;;;;;;;13.40;8.27;;;;;;;;;;6100492;29;20044;-61
2023/08/27 23:38:32;;;;;;;10.30;7.03;;;;;;;;;;6101690;29;20055;-61
2023/08/27 23:41:33;;;;;;;10.60;6.80;;;;;;;;;;6099957;29;20055;-61
2023/08/27 23:44:33;;;;;;;9.30;5.97;;;;;;;;;;6102910;29;20060;-61
2023/08/27 23:47:34;;;;;;;9.33;5.90;;;;;;;;;;6096935;29;20211;-61
2023/08/27 23:50:34;;;;;;;10.40;6.83;;;;;;;;;;6098772;29;20052;-61
2023/08/27 23:53:35;;;;;;;9.83;6.63;;;;;;;;;;6096549;29;20075;-61
2023/08/27 23:56:36;;;;;;;10.43;6.00;;;;;;;;;;6101794;29;20040;-60
2023/08/27 23:59:37;;;;;;;10.45;6.25;;;;;;;;;;6101116;29;20459;-59
